Time;durP1;ratioP1;P1;durP2;ratioP2;P2;SDS_P1;SDS_P2;PMS_P1;PMS_P2;Temp;Humidity;BMP_temperature;BMP_pressure;BME280_temperature;BME280_humidity;BME280_pressure;Samples;Min_cycle;Max_cycle;Signal;HPM_P1;HPM_P2
2022/06/09 00:02:01;;;;;;;4.13;2.90;;;;;;;13.19;100.00;95665.84;5099384;28;20107;-61
2022/06/09 00:04:33;;;;;;;2.78;2.58;;;;;;;13.22;100.00;95662.88;5099904;28;20024;-61
2022/06/09 00:07:06;;;;;;;2.05;1.70;;;;;;;13.23;100.00;95661.88;5099488;28;20028;-62
2022/06/09 00:09:41;;;;;;;3.08;2.42;;;;;;;13.20;100.00;95682.53;5098901;28;20069;-62
2022/06/09 00:12:07;;;;;;;2.53;2.37;;;;;;;13.12;100.00;95681.50;5094477;28;20031;-62
2022/06/09 00:14:33;;;;;;;5.00;2.15;;;;;;;13.03;100.00;95677.97;5098002;28;20027;-62
2022/06/09 00:16:59;;;;;;;2.58;2.35;;;;;;;13.00;100.00;95674.84;5094469;28;20023;-62
2022/06/09 00:19:25;;;;;;;4.43;4.00;;;;;;;12.94;100.00;95668.38;5090648;28;20028;-61
2022/06/09 00:21:50;;;;;;;5.22;4.93;;;;;;;12.96;100.00;95662.94;5096461;28;20043;-62
2022/06/09 00:24:17;;;;;;;11.63;10.77;;;;;;;13.03;100.00;95656.03;5091701;28;20043;-62
2022/06/09 00:26:43;;;;;;;16.08;14.32;;;;;;;13.06;100.00;95652.25;5100444;28;20044;-62
2022/06/09 00:29:08;;;;;;;6.30;4.60;;;;;;;13.03;100.00;95648.09;5098891;28;20140;-62
2022/06/09 00:31:33;;;;;;;2.55;1.95;;;;;;;13.03;100.00;95640.16;5101602;28;20038;-62
2022/06/09 00:33:59;;;;;;;3.70;1.80;;;;;;;13.07;100.00;95638.84;5097863;28;20403;-62
2022/06/09 00:36:25;;;;;;;1.00;1.00;;;;;;;13.06;100.00;95636.38;5096883;28;20028;-62
2022/06/09 00:38:50;;;;;;;0.90;0.90;;;;;;;12.92;100.00;95632.50;5099164;28;20104;-62
2022/06/09 00:41:16;;;;;;;1.05;1.00;;;;;;;12.96;100.00;95628.59;5092295;28;20097;-62
2022/06/09 00:43:43;;;;;;;1.40;1.00;;;;;;;12.99;100.00;95628.25;5091174;28;20031;-62
2022/06/09 00:46:18;;;;;;;1.42;1.27;;;;;;;12.98;100.00;95638.00;5090781;28;20069;-62
2022/06/09 00:49:09;;;;;;;3.33;1.10;;;;;;;12.98;100.00;95631.91;5094149;28;20067;-62
2022/06/09 00:51:42;;;;;;;1.70;1.10;;;;;;;13.00;100.00;95627.28;5091955;28;20166;-62
2022/06/09 00:54:14;;;;;;;1.98;1.70;;;;;;;12.98;100.00;95632.69;5094574;28;20422;-62
2022/06/09 00:56:46;;;;;;;2.17;1.88;;;;;;;12.96;100.00;95639.97;5091785;28;20111;-62
2022/06/09 00:59:15;;;;;;;1.08;1.08;;;;;;;12.93;100.00;95628.88;5094619;28;20706;-62
2022/06/09 01:01:41;;;;;;;5.45;0.85;;;;;;;12.89;100.00;95631.84;5092004;28;20122;-62
2022/06/09 01:04:10;;;;;;;0.90;0.85;;;;;;;12.97;100.00;95636.34;5097378;28;20038;-63
2022/06/09 01:06:45;;;;;;;0.70;0.70;;;;;;;12.83;100.00;95634.31;5098849;28;20011;-62
2022/06/09 01:09:14;;;;;;;4.38;0.80;;;;;;;12.77;100.00;95629.63;5099401;28;20036;-62
2022/06/09 01:11:40;;;;;;;0.98;0.80;;;;;;;12.71;100.00;95631.06;5093545;28;20028;-62
2022/06/09 01:14:12;;;;;;;0.77;0.77;;;;;;;12.65;100.00;95627.28;5096275;28;20024;-62
2022/06/09 01:17:15;;;;;;;0.82;0.82;;;;;;;12.55;100.00;95624.72;5094718;28;20032;-62
2022/06/09 01:19:47;;;;;;;2.03;1.15;;;;;;;12.49;100.00;95622.72;5091423;28;20043;-62
2022/06/09 01:22:43;;;;;;;1.65;1.00;;;;;;;12.50;100.00;95605.06;5095851;28;20028;-62
2022/06/09 01:25:33;;;;;;;1.27;1.10;;;;;;;12.55;100.00;95621.25;5093787;28;20031;-62
2022/06/09 01:28:33;;;;;;;0.85;0.85;;;;;;;12.46;100.00;95612.44;5098706;28;20417;-62
2022/06/09 01:31:04;;;;;;;1.98;0.93;;;;;;;12.48;100.00;95621.03;5072097;28;20043;-62
2022/06/09 01:33:48;;;;;;;1.88;0.98;;;;;;;12.50;100.00;95619.09;5097876;28;20032;-62
2022/06/09 01:36:23;;;;;;;2.17;1.00;;;;;;;12.49;100.00;95617.44;5095281;28;20031;-62
2022/06/09 01:38:52;;;;;;;3.97;0.80;;;;;;;12.44;100.00;95622.34;5098594;28;20039;-62
2022/06/09 01:41:18;;;;;;;3.25;0.82;;;;;;;12.43;100.00;95612.75;5098313;28;20032;-62
2022/06/09 01:43:46;;;;;;;0.93;0.93;;;;;;;12.41;100.00;95620.84;5100820;28;20024;-62
2022/06/09 01:46:29;;;;;;;1.90;1.10;;;;;;;12.44;100.00;95622.34;5098902;28;20024;-63
2022/06/09 01:48:59;;;;;;;2.90;1.00;;;;;;;12.44;100.00;95615.25;5107140;28;20024;-62
2022/06/09 01:51:30;;;;;;;1.52;1.48;;;;;;;12.46;100.00;95613.28;5097085;28;20103;-62
2022/06/09 01:54:00;;;;;;;1.98;1.88;;;;;;;12.46;100.00;95618.56;5097505;28;20028;-62
2022/06/09 01:56:32;;;;;;;1.77;1.67;;;;;;;12.50;100.00;95624.38;5101365;28;20044;-63
2022/06/09 01:59:23;;;;;;;2.47;1.92;;;;;;;12.50;100.00;95626.19;5094648;28;20088;-62
2022/06/09 02:01:55;;;;;;;1.77;1.67;;;;;;;12.48;100.00;95626.31;5097108;28;20069;-63
2022/06/09 02:04:42;;;;;;;3.53;1.20;;;;;;;12.56;100.00;95623.75;5098764;28;20024;-63
2022/06/09 02:07:09;;;;;;;2.60;1.15;;;;;;;12.50;100.00;95619.09;5092159;28;20024;-62
2022/06/09 02:09:37;;;;;;;1.05;1.05;;;;;;;12.50;100.00;95613.81;5090494;28;20379;-62
2022/06/09 02:12:07;;;;;;;6.10;1.15;;;;;;;12.58;100.00;95602.44;5098479;28;20015;-62
2022/06/09 02:14:33;;;;;;;1.77;1.42;;;;;;;12.60;100.00;95600.50;5109492;28;20027;-62
2022/06/09 02:16:58;;;;;;;0.90;0.90;;;;;;;12.56;100.00;95581.50;5097450;28;21783;-61
2022/06/09 02:19:26;;;;;;;0.98;0.98;;;;;;;12.49;100.00;95584.91;5104249;28;20020;-62
2022/06/09 02:21:51;;;;;;;1.02;0.90;;;;;;;12.46;100.00;95592.16;5095763;28;20517;-63
2022/06/09 02:24:17;;;;;;;4.13;0.70;;;;;;;12.40;100.00;95591.97;5099264;28;20028;-62
2022/06/09 02:26:42;;;;;;;0.63;0.63;;;;;;;12.41;100.00;95589.19;5100488;28;20024;-62
2022/06/09 02:29:08;;;;;;;3.60;1.05;;;;;;;12.44;100.00;95586.22;5102376;28;20439;-62
2022/06/09 02:31:33;;;;;;;0.80;0.80;;;;;;;12.40;100.00;95591.97;5100427;28;20034;-62
2022/06/09 02:33:59;;;;;;;1.50;1.40;;;;;;;12.38;100.00;95584.22;5100906;28;20418;-62
2022/06/09 02:36:25;;;;;;;15.00;13.90;;;;;;;12.37;100.00;95593.09;5103712;28;20023;-62
2022/06/09 02:38:51;;;;;;;11.55;10.55;;;;;;;12.35;100.00;95592.41;5105674;28;20123;-62
2022/06/09 02:41:16;;;;;;;13.73;12.82;;;;;;;12.35;100.00;95602.97;5099752;28;20035;-62
2022/06/09 02:43:42;;;;;;;9.15;8.55;;;;;;;12.38;100.00;95604.50;5104026;28;20031;-61
2022/06/09 02:46:08;;;;;;;6.75;4.93;;;;;;;12.49;100.00;95608.69;5104188;28;20034;-62
2022/06/09 02:48:34;;;;;;;4.95;4.65;;;;;;;12.40;100.00;95613.06;5096319;28;20486;-62
2022/06/09 02:51:23;;;;;;;4.35;3.95;;;;;;;12.36;100.00;95625.75;5106061;28;20032;-62
2022/06/09 02:53:49;;;;;;;5.57;3.72;;;;;;;12.42;100.00;95637.50;5096604;28;20035;-62
2022/06/09 02:56:15;;;;;;;4.03;2.25;;;;;;;12.39;100.00;95643.09;5103871;28;20044;-62
2022/06/09 02:58:41;;;;;;;2.58;2.47;;;;;;;12.32;100.00;95641.09;5106836;28;20046;-62
2022/06/09 03:01:07;;;;;;;3.30;3.10;;;;;;;12.32;100.00;95643.72;5099405;28;20032;-62
2022/06/09 03:03:32;;;;;;;3.08;2.83;;;;;;;12.35;100.00;95650.50;5102688;28;20093;-62
2022/06/09 03:05:58;;;;;;;2.10;2.00;;;;;;;12.40;100.00;95655.31;5105784;28;20023;-61
2022/06/09 03:08:23;;;;;;;2.55;2.40;;;;;;;12.41;100.00;95649.91;5102346;28;20024;-62
2022/06/09 03:10:49;;;;;;;2.50;2.40;;;;;;;12.37;100.00;95656.44;5103922;28;20050;-62
2022/06/09 03:13:14;;;;;;;2.35;2.13;;;;;;;12.31;100.00;95663.19;5103014;28;20081;-61
2022/06/09 03:15:39;;;;;;;3.05;2.80;;;;;;;12.31;100.00;95664.97;5103065;28;20020;-61
2022/06/09 03:18:05;;;;;;;2.70;2.50;;;;;;;12.27;100.00;95661.84;5104418;28;20480;-61
2022/06/09 03:20:33;;;;;;;4.22;1.88;;;;;;;12.25;100.00;95650.59;5099155;28;20126;-62
2022/06/09 03:22:59;;;;;;;2.38;2.17;;;;;;;12.27;100.00;95661.84;5097396;28;20028;-61
2022/06/09 03:25:24;;;;;;;4.82;2.00;;;;;;;12.38;100.00;95673.13;5100949;28;20058;-61
2022/06/09 03:27:50;;;;;;;3.38;1.65;;;;;;;12.40;100.00;95671.16;5108244;28;20022;-62
2022/06/09 03:30:16;;;;;;;2.72;1.30;;;;;;;12.31;100.00;95681.66;5099205;28;20027;-61
2022/06/09 03:32:41;;;;;;;2.08;1.10;;;;;;;12.24;100.00;95685.06;5102416;28;20398;-61
2022/06/09 03:35:07;;;;;;;1.63;1.10;;;;;;;12.18;100.00;95687.34;5102824;28;20059;-62
2022/06/09 03:37:34;;;;;;;0.95;0.95;;;;;;;12.22;100.00;95695.75;5097892;28;20068;-62
2022/06/09 03:39:59;;;;;;;1.45;1.40;;;;;;;12.26;100.00;95701.56;5109759;28;20050;-61
2022/06/09 03:42:25;;;;;;;1.23;1.10;;;;;;;12.24;100.00;95707.00;5100729;28;20391;-62
2022/06/09 03:44:50;;;;;;;1.52;1.20;;;;;;;12.25;100.00;95695.44;5095287;28;20043;-61
2022/06/09 03:47:15;;;;;;;0.80;0.80;;;;;;;12.26;100.00;95702.38;5100083;28;20048;-61
2022/06/09 03:49:41;;;;;;;1.00;1.00;;;;;;;12.26;100.00;95697.09;5102734;28;20036;-61
2022/06/09 03:52:07;;;;;;;1.27;1.00;;;;;;;12.26;100.00;95697.09;5095835;28;20491;-62
2022/06/09 03:54:32;;;;;;;1.00;1.00;;;;;;;12.26;100.00;95696.31;5100397;28;20019;-61
2022/06/09 03:56:58;;;;;;;2.90;1.80;;;;;;;12.23;100.00;95697.41;5104495;28;20055;-62
2022/06/09 03:59:23;;;;;;;1.23;1.23;;;;;;;12.27;100.00;95688.25;5103315;28;20023;-62
2022/06/09 04:01:49;;;;;;;1.52;1.10;;;;;;;12.26;100.00;95693.66;5104790;28;20079;-62
2022/06/09 04:04:14;;;;;;;1.10;1.10;;;;;;;12.26;100.00;95691.03;5102232;28;20078;-62
2022/06/09 04:06:40;;;;;;;1.20;1.20;;;;;;;12.23;100.00;95691.31;5097202;28;20066;-61
2022/06/09 04:09:06;;;;;;;1.90;1.00;;;;;;;12.23;100.00;95684.22;5100220;28;20557;-61
2022/06/09 04:11:32;;;;;;;1.38;1.15;;;;;;;12.23;100.00;95680.78;5095345;28;20032;-62
2022/06/09 04:13:58;;;;;;;1.42;1.25;;;;;;;12.21;100.00;95683.56;5103915;28;20089;-62
2022/06/09 04:16:30;;;;;;;1.20;1.10;;;;;;;12.21;100.00;95686.19;5101127;28;20524;-62
2022/06/09 04:18:59;;;;;;;1.40;1.23;;;;;;;12.16;100.00;95691.09;5096287;28;22066;-62
2022/06/09 04:21:25;;;;;;;2.05;1.10;;;;;;;12.11;100.00;95677.53;5096433;28;20032;-61
2022/06/09 04:23:51;;;;;;;3.42;1.10;;;;;;;12.06;100.00;95675.34;5097500;28;20035;-62
2022/06/09 04:26:20;;;;;;;1.10;1.10;;;;;;;12.05;100.00;95673.69;5107180;28;20402;-62
2022/06/09 04:28:46;;;;;;;1.83;1.20;;;;;;;12.02;100.00;95679.28;5094302;28;20514;-62
2022/06/09 04:31:12;;;;;;;4.22;1.40;;;;;;;12.03;100.00;95678.28;5102744;28;20020;-62
2022/06/09 04:33:38;;;;;;;3.85;1.20;;;;;;;11.95;100.00;95672.91;5092539;28;20410;-62
2022/06/09 04:36:04;;;;;;;2.08;1.10;;;;;;;11.93;100.00;95672.22;5103064;28;20031;-62
2022/06/09 04:38:30;;;;;;;1.20;1.10;;;;;;;11.89;100.00;95677.78;5101121;28;20027;-62
2022/06/09 04:40:55;;;;;;;1.13;1.02;;;;;;;11.93;100.00;95678.34;5097993;28;20616;-62
2022/06/09 04:43:20;;;;;;;2.08;1.20;;;;;;;11.91;100.00;95677.66;5102422;28;20050;-61
2022/06/09 04:45:46;;;;;;;1.83;1.00;;;;;;;11.92;100.00;95684.59;5094270;28;20020;-62
2022/06/09 04:48:12;;;;;;;4.22;1.10;;;;;;;11.84;100.00;95687.16;5104264;28;20036;-62
2022/06/09 04:50:39;;;;;;;1.73;1.13;;;;;;;11.86;100.00;95680.75;5092971;28;20043;-62
2022/06/09 04:53:07;;;;;;;2.67;1.63;;;;;;;11.84;100.00;95690.63;5096979;28;20036;-62
2022/06/09 04:55:33;;;;;;;2.97;2.72;;;;;;;11.85;100.00;95694.91;5089958;28;20479;-62
2022/06/09 04:57:58;;;;;;;2.65;2.47;;;;;;;11.82;100.00;95695.22;5089045;28;20032;-62
2022/06/09 05:00:23;;;;;;;7.43;2.10;;;;;;;11.88;100.00;95694.59;5093176;28;20105;-61
2022/06/09 05:02:51;;;;;;;1.85;1.70;;;;;;;12.03;100.00;95702.84;5089809;28;20056;-62
2022/06/09 05:05:29;;;;;;;3.00;1.33;;;;;;;12.09;100.00;95700.63;5093870;28;20111;-62
2022/06/09 05:07:55;;;;;;;3.28;1.80;;;;;;;11.95;100.00;95694.03;5093333;28;20036;-62
2022/06/09 05:10:21;;;;;;;1.33;1.33;;;;;;;11.93;100.00;95695.97;5096978;28;20024;-62
2022/06/09 05:12:46;;;;;;;2.97;1.48;;;;;;;11.93;100.00;95688.03;5091631;28;20115;-62
2022/06/09 05:15:17;;;;;;;4.93;2.53;;;;;;;11.95;100.00;95689.56;5097031;28;20030;-62
2022/06/09 05:17:42;;;;;;;2.88;1.83;;;;;;;12.05;100.00;95694.81;5093674;28;20157;-62
2022/06/09 05:20:11;;;;;;;4.43;2.67;;;;;;;12.08;100.00;95691.84;5089158;28;20115;-63
2022/06/09 05:22:36;;;;;;;5.13;3.38;;;;;;;12.14;100.00;95691.25;5090486;28;20617;-61
2022/06/09 05:25:03;;;;;;;3.60;3.38;;;;;;;12.11;100.00;95690.72;5095555;28;20032;-62
2022/06/09 05:27:28;;;;;;;3.60;2.95;;;;;;;12.12;100.00;95692.38;5106013;28;20065;-63
2022/06/09 05:29:53;;;;;;;6.63;3.97;;;;;;;12.17;100.00;95703.31;5100219;28;20176;-63
2022/06/09 05:32:19;;;;;;;6.85;2.30;;;;;;;12.21;100.00;95704.66;5105349;28;20472;-62
2022/06/09 05:34:44;;;;;;;3.67;1.70;;;;;;;12.23;100.00;95713.25;5103310;28;20032;-61
2022/06/09 05:37:10;;;;;;;2.53;1.83;;;;;;;12.17;100.00;95708.59;5097578;28;20449;-63
2022/06/09 05:45:04;;;;;;;6.63;1.52;;;;;;;12.15;100.00;95707.91;5089374;28;20085;-62
2022/06/09 05:47:30;;;;;;;1.50;1.40;;;;;;;12.25;100.00;95711.28;5103593;28;20024;-63
2022/06/09 05:49:55;;;;;;;1.50;1.40;;;;;;;12.30;100.00;95709.03;5091664;28;20028;-62
2022/06/09 05:52:24;;;;;;;1.70;1.50;;;;;;;12.29;100.00;95702.13;5099133;28;20506;-61
2022/06/09 05:54:51;;;;;;;2.10;2.00;;;;;;;12.36;100.00;95701.50;5102481;28;20553;-61
2022/06/09 05:57:17;;;;;;;1.95;1.40;;;;;;;12.39;100.00;95709.09;5090535;28;20129;-60
2022/06/09 05:59:42;;;;;;;1.45;1.38;;;;;;;12.52;100.00;95717.47;5089233;28;20024;-62
2022/06/09 06:02:08;;;;;;;2.28;1.38;;;;;;;12.45;100.00;95729.59;5089531;28;20028;-62
2022/06/09 06:04:34;;;;;;;1.48;1.38;;;;;;;12.35;100.00;95734.16;5089342;28;20020;-61
2022/06/09 06:07:00;;;;;;;3.45;1.55;;;;;;;12.20;100.00;95734.69;5089184;28;20051;-61
2022/06/09 06:09:25;;;;;;;3.70;1.80;;;;;;;12.07;100.00;95735.06;5089628;28;20030;-60
2022/06/09 06:11:51;;;;;;;2.53;2.10;;;;;;;11.98;100.00;95752.59;5095027;28;20108;-60
2022/06/09 06:14:18;;;;;;;4.13;1.98;;;;;;;11.93;100.00;95756.63;5101756;27;20482;-60
2022/06/09 06:16:44;;;;;;;3.95;1.90;;;;;;;11.85;100.00;95768.78;5098108;28;20475;-60
2022/06/09 06:19:13;;;;;;;1.98;1.80;;;;;;;11.79;100.00;95764.09;5091412;28;20081;-60
2022/06/09 06:21:39;;;;;;;5.22;1.80;;;;;;;11.79;100.00;95763.25;5091405;28;20028;-61
2022/06/09 06:24:05;;;;;;;1.85;1.75;;;;;;;11.82;100.00;95758.53;5091019;28;20201;-60
2022/06/09 06:26:32;;;;;;;2.28;1.70;;;;;;;11.86;100.00;95754.59;5090538;28;20372;-60
2022/06/09 06:28:57;;;;;;;7.75;2.08;;;;;;;11.92;100.00;95758.47;5103178;28;20072;-60
2022/06/09 06:31:23;;;;;;;3.88;1.42;;;;;;;11.94;100.00;95767.06;5111107;28;20031;-61
2022/06/09 06:33:48;;;;;;;1.40;1.30;;;;;;;12.00;100.00;95768.28;5110930;28;20465;-60
2022/06/09 06:36:14;;;;;;;1.63;1.52;;;;;;;12.06;100.00;95772.16;5097188;28;20040;-60
2022/06/09 06:38:40;;;;;;;2.67;1.30;;;;;;;12.03;100.00;95773.28;5101492;28;20035;-60
2022/06/09 06:41:07;;;;;;;1.50;1.40;;;;;;;12.06;100.00;95775.63;5098113;28;20034;-60
2022/06/09 06:43:33;;;;;;;4.07;1.80;;;;;;;12.07;100.00;95784.38;5091893;28;20513;-60
2022/06/09 06:45:58;;;;;;;2.40;2.30;;;;;;;12.18;100.00;95782.34;5094192;28;20028;-61
2022/06/09 06:48:24;;;;;;;2.85;2.67;;;;;;;12.15;100.00;95787.09;5112678;28;20097;-60
2022/06/09 06:50:49;;;;;;;3.15;2.60;;;;;;;12.07;100.00;95793.09;5112434;28;20106;-60
2022/06/09 06:53:15;;;;;;;3.83;2.67;;;;;;;12.12;100.00;95795.31;5113099;28;20027;-60
2022/06/09 06:55:41;;;;;;;5.82;2.00;;;;;;;12.10;100.00;95792.00;5112778;28;20044;-61
2022/06/09 06:58:07;;;;;;;2.28;2.08;;;;;;;12.14;100.00;95793.34;5112153;28;20039;-60
2022/06/09 07:00:34;;;;;;;2.47;1.98;;;;;;;12.26;100.00;95797.41;5113033;28;20327;-60
2022/06/09 07:02:59;;;;;;;5.80;2.20;;;;;;;12.28;100.00;95790.22;5112729;28;20367;-60
2022/06/09 07:05:25;;;;;;;1.73;1.63;;;;;;;12.36;100.00;95791.25;5112626;28;20129;-61
2022/06/09 07:07:50;;;;;;;1.30;1.20;;;;;;;12.48;100.00;95799.78;5112383;28;20066;-60
2022/06/09 07:10:16;;;;;;;2.17;1.38;;;;;;;12.59;100.00;95795.09;5112606;28;20024;-61
2022/06/09 07:12:42;;;;;;;1.20;1.10;;;;;;;12.79;100.00;95796.72;5112506;28;20019;-60
2022/06/09 07:15:11;;;;;;;1.48;1.38;;;;;;;12.93;100.00;95800.63;5112228;28;20489;-61
2022/06/09 07:17:36;;;;;;;1.90;1.48;;;;;;;13.03;100.00;95799.53;5112692;28;20111;-60
2022/06/09 07:20:03;;;;;;;1.10;1.10;;;;;;;13.19;100.00;95800.66;5112513;28;20125;-61
2022/06/09 07:22:28;;;;;;;1.00;1.00;;;;;;;13.34;100.00;95806.19;5111572;28;20028;-60
2022/06/09 07:24:55;;;;;;;1.65;1.17;;;;;;;13.44;100.00;95803.47;5112587;28;20416;-60
2022/06/09 07:27:22;;;;;;;1.30;1.20;;;;;;;13.57;100.00;95811.81;5112345;28;20105;-61
2022/06/09 07:29:47;;;;;;;1.55;1.45;;;;;;;13.68;100.00;95812.50;5112081;28;20023;-61
2022/06/09 07:32:13;;;;;;;1.55;1.45;;;;;;;13.63;100.00;95810.34;5112118;28;20015;-60
2022/06/09 07:34:38;;;;;;;1.40;1.30;;;;;;;13.56;100.00;95817.25;5112209;28;20011;-61
2022/06/09 07:37:05;;;;;;;1.17;1.10;;;;;;;13.62;100.00;95819.28;5112063;28;20057;-61
2022/06/09 07:39:31;;;;;;;1.50;0.95;;;;;;;13.84;100.00;95827.66;5112102;28;20015;-60
2022/06/09 07:41:57;;;;;;;2.25;1.20;;;;;;;14.01;100.00;95825.88;5111707;28;20119;-61
2022/06/09 07:44:23;;;;;;;4.13;1.35;;;;;;;14.02;100.00;95817.75;5102708;28;20055;-60
2022/06/09 07:46:48;;;;;;;1.10;1.10;;;;;;;14.07;100.00;95822.59;5106566;28;20043;-61
2022/06/09 07:49:13;;;;;;;1.73;0.90;;;;;;;14.12;98.19;95819.47;5103392;28;20015;-61
2022/06/09 07:51:40;;;;;;;0.88;0.85;;;;;;;14.10;97.43;95826.75;5091332;28;20024;-61
2022/06/09 07:54:06;;;;;;;1.00;1.00;;;;;;;14.01;97.97;95823.25;5091289;28;20027;-60
2022/06/09 07:56:32;;;;;;;1.00;0.90;;;;;;;14.01;97.99;95820.59;5091215;28;20043;-61
2022/06/09 07:59:00;;;;;;;1.55;1.00;;;;;;;14.01;99.19;95826.69;5091062;28;20413;-60
2022/06/09 08:01:25;;;;;;;1.27;1.15;;;;;;;13.93;99.21;95817.94;5091049;28;20031;-60
2022/06/09 08:03:51;;;;;;;1.90;1.23;;;;;;;13.78;98.93;95820.31;5090940;28;20024;-61
2022/06/09 08:06:16;;;;;;;0.98;0.98;;;;;;;13.66;99.90;95815.31;5090965;28;20020;-61
2022/06/09 08:08:42;;;;;;;1.10;1.10;;;;;;;13.67;99.08;95816.13;5090886;28;20024;-61
2022/06/09 08:11:08;;;;;;;2.05;1.10;;;;;;;13.82;98.79;95819.03;5091080;28;20074;-61
2022/06/09 08:13:35;;;;;;;3.58;1.20;;;;;;;13.84;99.98;95817.88;5091178;28;20016;-60
2022/06/09 08:16:01;;;;;;;1.42;1.15;;;;;;;13.82;100.00;95813.75;5090664;28;20547;-61
2022/06/09 08:18:27;;;;;;;2.63;1.20;;;;;;;13.87;98.74;95816.75;5090682;28;20028;-61
2022/06/09 08:20:53;;;;;;;1.30;1.10;;;;;;;13.94;100.00;95811.63;5090689;28;20032;-61
2022/06/09 08:23:22;;;;;;;1.10;1.10;;;;;;;14.08;99.84;95811.00;5090742;28;20368;-60
2022/06/09 08:25:49;;;;;;;0.95;0.95;;;;;;;14.16;99.85;95813.69;5090866;28;20028;-61
2022/06/09 08:28:18;;;;;;;2.15;1.00;;;;;;;14.29;100.00;95817.69;5090580;28;20024;-61
2022/06/09 08:30:46;;;;;;;1.30;1.27;;;;;;;14.31;98.91;95821.00;5090694;28;20107;-61
2022/06/09 08:33:12;;;;;;;2.00;1.00;;;;;;;14.37;99.20;95822.16;5090609;28;20057;-61
2022/06/09 08:35:38;;;;;;;1.25;0.98;;;;;;;14.35;94.18;95824.16;5090815;28;20481;-61
2022/06/09 08:38:05;;;;;;;1.10;1.00;;;;;;;14.38;94.75;95831.78;5090263;28;20051;-61
2022/06/09 08:40:43;;;;;;;2.13;1.10;;;;;;;14.36;97.92;95828.47;5090426;28;20088;-61
2022/06/09 08:43:24;;;;;;;0.95;0.95;;;;;;;14.24;96.67;95826.09;5090525;28;20024;-61
2022/06/09 08:45:53;;;;;;;0.90;0.90;;;;;;;14.20;98.79;95823.97;5090366;28;20031;-61
2022/06/09 08:48:22;;;;;;;1.45;1.00;;;;;;;14.24;95.45;95833.22;5110707;28;20039;-61
2022/06/09 08:51:03;;;;;;;2.47;0.90;;;;;;;14.29;96.80;95837.06;5110294;28;20104;-61
2022/06/09 08:53:37;;;;;;;1.80;1.50;;;;;;;14.14;97.46;95836.03;5110712;28;20099;-60
2022/06/09 08:56:16;;;;;;;1.05;1.05;;;;;;;13.95;100.00;95840.56;5110119;28;20101;-61
2022/06/09 08:59:10;;;;;;;2.35;1.27;;;;;;;14.01;99.36;95836.47;5110892;28;20102;-60
2022/06/09 09:01:41;;;;;;;1.10;1.10;;;;;;;14.07;100.00;95853.53;5110565;28;20482;-60
2022/06/09 09:04:27;;;;;;;1.27;1.10;;;;;;;14.13;100.00;95853.69;5110725;28;20023;-60
2022/06/09 09:07:13;;;;;;;2.65;1.30;;;;;;;14.23;99.81;95861.53;5096734;28;20023;-61
2022/06/09 09:09:40;;;;;;;1.40;1.33;;;;;;;14.18;100.00;95858.53;5092013;28;20027;-60
2022/06/09 09:12:26;;;;;;;1.15;1.05;;;;;;;14.22;100.00;95867.00;5110474;28;20530;-61
2022/06/09 09:15:03;;;;;;;1.38;1.20;;;;;;;14.28;98.48;95867.19;5110207;28;20113;-61
2022/06/09 09:17:59;;;;;;;1.27;1.15;;;;;;;14.24;99.30;95863.19;5110482;28;20414;-61
2022/06/09 09:21:12;;;;;;;1.10;1.10;;;;;;;14.17;100.00;95868.31;5110498;28;20027;-60
2022/06/09 09:23:51;;;;;;;1.52;1.15;;;;;;;14.42;98.99;95860.44;5027303;28;20503;-60
2022/06/09 09:26:42;;;;;;;3.90;1.38;;;;;;;14.36;100.00;95844.34;5100295;28;20071;-61
2022/06/09 09:29:11;;;;;;;1.52;1.42;;;;;;;14.50;98.55;95856.13;5078567;28;20566;-60
2022/06/09 09:31:57;;;;;;;2.22;1.60;;;;;;;14.66;98.89;95858.81;5110297;28;20061;-60
2022/06/09 09:34:24;;;;;;;;;;;;;;;14.81;96.09;95868.78;5110535;28;20098;-61
2022/06/09 09:36:59;;;;;;;3.25;1.15;;;;;;;14.86;94.87;95863.84;5093325;28;20006;-60
2022/06/09 09:40:07;;;;;;;2.15;1.30;;;;;;;15.12;95.07;95863.66;5090876;28;20103;-61
2022/06/09 09:42:36;;;;;;;2.05;1.92;;;;;;;15.36;92.35;95861.19;5062668;28;20418;-60
2022/06/09 09:45:16;;;;;;;2.78;2.58;;;;;;;15.32;91.53;95858.88;5091117;28;20036;-60
2022/06/09 09:47:50;;;;;;;1.85;1.40;;;;;;;15.39;94.56;95874.09;5109728;28;20496;-61
2022/06/09 09:50:25;;;;;;;1.52;1.20;;;;;;;15.51;92.74;95864.81;5114498;28;20030;-61
2022/06/09 09:52:58;;;;;;;2.27;1.27;;;;;;;15.57;93.33;95876.56;5114021;28;20016;-60
2022/06/09 09:55:32;;;;;;;1.65;1.10;;;;;;;15.73;91.86;95875.72;5113871;28;20046;-61
2022/06/09 09:58:19;;;;;;;5.22;1.50;;;;;;;16.09;91.95;95879.78;5114033;28;20035;-60
2022/06/09 10:00:46;;;;;;;2.80;1.10;;;;;;;16.40;89.69;95881.63;5113996;28;20486;-61
2022/06/09 10:09:01;;;;;;;3.20;1.20;;;;;;;16.55;87.23;95887.84;5114027;28;20030;-61
2022/06/09 10:14:37;;;;;;;1.23;1.13;;;;;;;17.26;84.14;95892.22;5114358;28;20110;-61
2022/06/09 10:17:18;;;;;;;2.00;1.00;;;;;;;17.26;84.04;95891.41;5099446;28;20027;-61
2022/06/09 10:19:51;;;;;;;1.30;1.00;;;;;;;17.36;82.35;95896.47;5113410;28;20085;-61
2022/06/09 10:22:19;;;;;;;0.90;0.90;;;;;;;17.39;82.85;95888.97;5113954;28;20026;-61
2022/06/09 10:25:02;;;;;;;2.30;1.02;;;;;;;17.50;80.37;95882.38;5113503;28;20024;-61
2022/06/09 10:27:35;;;;;;;1.38;1.00;;;;;;;17.47;81.09;95875.56;5101378;28;20032;-61
2022/06/09 10:30:06;;;;;;;3.45;1.20;;;;;;;17.36;82.05;95881.34;5113020;28;20031;-61
2022/06/09 10:32:58;;;;;;;1.10;1.00;;;;;;;18.74;76.86;95888.94;5113313;28;20024;-60
2022/06/09 10:35:42;;;;;;;1.90;1.02;;;;;;;20.06;70.83;95881.66;5113170;28;20023;-61
2022/06/09 10:38:25;;;;;;;0.80;0.80;;;;;;;20.91;63.17;95883.25;5113093;28;20023;-61
2022/06/09 10:40:58;;;;;;;2.05;0.90;;;;;;;21.52;65.48;95878.75;5113533;28;20494;-61
2022/06/09 10:44:02;;;;;;;0.70;0.70;;;;;;;20.91;59.76;95884.06;5113301;28;20024;-61
2022/06/09 10:46:34;;;;;;;1.77;0.90;;;;;;;20.60;65.76;95878.19;5108493;28;20403;-61
2022/06/09 10:55:28;;;;;;;1.60;0.73;;;;;;;18.15;71.04;95895.19;5100434;28;20058;-61
2022/06/09 10:58:05;;;;;;;0.60;0.57;;;;;;;17.91;69.07;95894.44;5111814;28;20028;-61
2022/06/09 11:00:45;;;;;;;0.70;0.70;;;;;;;17.31;70.13;95895.19;5112799;28;20047;-61
2022/06/09 11:03:28;;;;;;;1.55;0.65;;;;;;;17.36;71.20;95901.78;5112605;28;20024;-61
2022/06/09 11:06:17;;;;;;;0.60;0.60;;;;;;;17.63;70.45;95907.53;5113013;28;20032;-61
2022/06/09 11:09:01;;;;;;;1.13;1.08;;;;;;;17.40;67.33;95925.22;5100181;28;20066;-61
2022/06/09 11:12:02;;;;;;;1.13;0.80;;;;;;;17.10;70.78;95917.09;5112504;28;20502;-61
2022/06/09 11:14:44;;;;;;;1.38;0.90;;;;;;;17.13;68.14;95910.63;5029744;28;20033;-61
2022/06/09 11:17:31;;;;;;;3.58;0.70;;;;;;;16.72;68.66;95901.88;5093493;28;20023;-61
2022/06/09 11:20:11;;;;;;;1.10;0.98;;;;;;;16.75;69.14;95921.97;5112172;28;20030;-61
2022/06/09 11:23:14;;;;;;;1.23;1.13;;;;;;;16.78;69.11;95926.94;5112397;28;20026;-60
2022/06/09 11:25:51;;;;;;;0.85;0.85;;;;;;;16.55;68.80;95926.88;5099379;28;20491;-61
2022/06/09 11:28:43;;;;;;;1.02;0.93;;;;;;;16.08;72.29;95942.66;5112094;28;20183;-61
2022/06/09 11:31:30;;;;;;;1.58;1.00;;;;;;;16.03;73.55;95958.28;5106800;28;20104;-61
2022/06/09 11:34:20;;;;;;;2.65;1.20;;;;;;;15.53;76.58;95954.84;5098651;28;20016;-61
2022/06/09 11:36:49;;;;;;;0.93;0.90;;;;;;;15.55;76.09;95961.66;5095583;28;20513;-61
2022/06/09 11:39:19;;;;;;;0.73;0.73;;;;;;;15.61;73.75;95946.88;5091677;28;20019;-61
2022/06/09 11:41:57;;;;;;;1.00;1.00;;;;;;;15.64;74.08;95945.72;5091437;28;20425;-60
2022/06/09 11:44:27;;;;;;;1.08;0.90;;;;;;;15.71;75.40;95939.56;5091683;28;20089;-61
2022/06/09 11:46:57;;;;;;;2.38;0.82;;;;;;;15.60;75.85;95939.94;5100584;28;20028;-61
2022/06/09 11:49:49;;;;;;;0.60;0.60;;;;;;;15.36;76.69;95938.91;5111668;28;20108;-61
2022/06/09 11:52:20;;;;;;;0.77;0.77;;;;;;;14.99;78.04;95942.88;5107580;28;20051;-60
2022/06/09 11:54:48;;;;;;;0.70;0.70;;;;;;;15.03;79.04;95942.41;5111570;28;20169;-61
2022/06/09 11:57:19;;;;;;;0.65;0.65;;;;;;;14.98;78.12;95941.22;5111598;28;20138;-60
2022/06/09 12:00:03;;;;;;;0.60;0.60;;;;;;;15.14;76.13;95946.56;5111751;28;20493;-60
2022/06/09 12:02:31;;;;;;;1.00;0.80;;;;;;;15.11;77.64;95954.81;5111917;28;20032;-60
2022/06/09 12:05:09;;;;;;;0.80;0.80;;;;;;;14.88;78.07;95951.97;5111643;28;20027;-61